Time;durP1;ratioP1;P1;durP2;ratioP2;P2;SDS_P1;SDS_P2;PMS_P1;PMS_P2;Temp;Humidity;BMP_temperature;BMP_pressure;BME280_temperature;BME280_humidity;BME280_pressure;Samples;Min_cycle;Max_cycle;Signal;HPM_P1;HPM_P2
2022/01/26 00:05:59;;;;;;;4.77;3.90;;;12.60;75.30;;;;;;10498786;28;20193;-87
2022/01/26 00:11:03;;;;;;;5.30;4.10;;;12.50;75.40;;;;;;10498627;28;20734;-87
2022/01/26 00:16:11;;;;;;;6.57;4.27;;;12.40;75.60;;;;;;10498760;28;20283;-87
2022/01/26 00:21:25;;;;;;;4.87;3.83;;;12.60;75.10;;;;;;10480618;28;20252;-87
2022/01/26 00:42:12;;;;;;;5.53;3.93;;;12.50;75.10;;;;;;10497925;28;20560;-87
2022/01/26 00:47:15;;;;;;;6.50;4.53;;;12.40;75.20;;;;;;10495184;28;20225;-87
2022/01/26 00:52:27;;;;;;;6.90;3.70;;;12.60;75.30;;;;;;10479495;28;20200;-87
2022/01/26 00:57:29;;;;;;;6.60;4.70;;;12.80;74.50;;;;;;10496069;28;20552;-87
2022/01/26 01:02:33;;;;;;;6.63;4.53;;;12.70;74.60;;;;;;10497374;28;20206;-87
2022/01/26 01:07:38;;;;;;;5.70;3.87;;;11.20;78.90;;;;;;10496866;28;20215;-87
2022/01/26 01:12:43;;;;;;;4.70;3.60;;;12.20;73.60;;;;;;10496985;28;20195;-87
2022/01/26 01:17:51;;;;;;;5.33;4.03;;;12.30;76.10;;;;;;10496890;28;20196;-87
2022/01/26 01:28:23;;;;;;;3.80;2.63;;;12.40;75.40;;;;;;10494971;28;20641;-87
2022/01/26 01:33:38;;;;;;;5.13;3.20;;;12.40;75.60;;;;;;10496674;28;20196;-86
2022/01/26 01:38:43;;;;;;;4.97;3.57;;;12.50;75.40;;;;;;10496808;28;20197;-87
2022/01/26 01:43:45;;;;;;;4.63;3.60;;;12.70;74.80;;;;;;10496046;28;20596;-87
2022/01/26 01:48:48;;;;;;;5.87;3.57;;;12.70;74.70;;;;;;10496781;28;20220;-87
2022/01/26 01:53:50;;;;;;;4.30;3.17;;;12.80;74.50;;;;;;10494929;28;20197;-87
2022/01/26 01:58:57;;;;;;;5.17;3.87;;;12.80;74.40;;;;;;10501001;28;20227;-87
2022/01/26 02:03:59;;;;;;;6.73;4.00;;;12.90;74.30;;;;;;10502184;28;20208;-87
2022/01/26 02:09:03;;;;;;;4.47;4.00;;;12.80;74.30;;;;;;10503506;28;20270;-87
2022/01/26 02:14:12;;;;;;;6.53;3.67;;;12.70;74.40;;;;;;10503580;28;20248;-87
2022/01/26 02:51:50;;;;;;;7.50;4.57;;;12.30;74.90;;;;;;10502147;28;20249;-87
2022/01/26 02:57:28;;;;;;;4.43;3.57;;;12.30;76.00;;;;;;10501474;28;20617;-87
2022/01/26 03:02:38;;;;;;;6.50;3.93;;;12.50;75.60;;;;;;10500210;28;20227;-87
2022/01/26 03:07:46;;;;;;;6.77;4.03;;;12.70;74.90;;;;;;10498597;28;20208;-87
2022/01/26 03:12:57;;;;;;;7.27;4.70;;;12.60;75.00;;;;;;10500007;28;20228;-87
2022/01/26 03:28:46;;;;;;;4.80;3.50;;;12.70;74.80;;;;;;10500567;28;20229;-87
2022/01/26 03:39:02;;;;;;;5.17;4.20;;;12.60;75.40;;;;;;10500564;28;20194;-87
2022/01/26 03:44:06;;;;;;;12.57;6.60;;;12.80;74.90;;;;;;10499931;28;20208;-87
2022/01/26 03:49:10;;;;;;;7.17;4.50;;;12.80;74.60;;;;;;10500008;28;20702;-87
2022/01/26 03:54:16;;;;;;;10.23;5.20;;;12.80;74.60;;;;;;10499548;28;20307;-87
2022/01/26 03:59:18;;;;;;;8.37;5.40;;;12.80;75.20;;;;;;10499330;28;20200;-87
2022/01/26 04:04:21;;;;;;;9.37;5.07;;;12.80;74.60;;;;;;10480885;28;20207;-87
2022/01/26 04:09:23;;;;;;;8.27;5.27;;;12.80;74.40;;;;;;10498976;28;20216;-87
2022/01/26 04:14:32;;;;;;;9.47;5.63;;;12.80;74.80;;;;;;10497465;28;20205;-87
2022/01/26 04:19:37;;;;;;;8.13;4.67;;;12.70;74.70;;;;;;10498596;28;20198;-87
2022/01/26 04:24:48;;;;;;;8.13;4.53;;;12.70;74.90;;;;;;10498423;28;20203;-87
2022/01/26 04:29:51;;;;;;;11.70;5.33;;;12.80;74.80;;;;;;10497759;28;20233;-87
2022/01/26 04:34:55;;;;;;;8.87;4.83;;;12.90;74.60;;;;;;10479812;28;20679;-87
2022/01/26 04:40:07;;;;;;;9.53;4.90;;;12.90;74.60;;;;;;10497918;28;20196;-86
2022/01/26 04:45:11;;;;;;;7.97;4.97;;;12.80;74.50;;;;;;10496387;28;20260;-87
2022/01/26 04:50:13;;;;;;;9.97;5.50;;;12.90;74.40;;;;;;10496063;28;20227;-86
2022/01/26 04:55:16;;;;;;;7.10;4.43;;;12.90;74.40;;;;;;10496167;28;20609;-87
2022/01/26 05:00:18;;;;;;;6.93;4.63;;;12.90;74.40;;;;;;10479114;28;20257;-87
2022/01/26 05:05:21;;;;;;;7.03;4.70;;;13.00;74.30;;;;;;10496881;28;20263;-87
2022/01/26 05:10:23;;;;;;;5.40;3.57;;;12.90;74.50;;;;;;10496937;28;20630;-86
2022/01/26 05:15:26;;;;;;;6.33;4.60;;;12.90;74.50;;;;;;10495437;28;20320;-87
2022/01/26 05:20:28;;;;;;;7.07;4.03;;;12.90;74.60;;;;;;10497097;28;20212;-87
2022/01/26 05:25:31;;;;;;;8.20;4.40;;;12.80;74.90;;;;;;10495807;28;20194;-87
2022/01/26 05:30:34;;;;;;;6.23;4.33;;;12.90;74.50;;;;;;10496534;28;20594;-87
2022/01/26 05:35:36;;;;;;;7.20;4.43;;;12.90;74.60;;;;;;10503364;28;20191;-87
2022/01/26 05:40:38;;;;;;;5.53;3.93;;;13.00;74.30;;;;;;10503448;28;20210;-87
2022/01/26 05:45:43;;;;;;;6.97;3.77;;;13.10;74.30;;;;;;10504578;28;20206;-87
2022/01/26 05:51:04;;;;;;;5.20;3.77;;;13.10;74.20;;;;;;10503301;28;20220;-87
2022/01/26 05:56:07;;;;;;;6.67;4.90;;;13.10;74.20;;;;;;10504242;28;20225;-87
2022/01/26 06:01:11;;;;;;;7.03;4.17;;;13.10;74.30;;;;;;10503788;28;20252;-87
2022/01/26 06:06:17;;;;;;;5.07;3.53;;;13.00;74.40;;;;;;10503665;28;20202;-87
2022/01/26 06:11:20;;;;;;;5.93;4.03;;;13.00;74.30;;;;;;10502380;28;20257;-87
2022/01/26 06:16:23;;;;;;;6.70;4.23;;;12.90;74.70;;;;;;10501926;28;20272;-87
2022/01/26 06:21:25;;;;;;;7.30;4.93;;;13.00;74.60;;;;;;10503269;28;20198;-87
2022/01/26 06:26:28;;;;;;;6.90;4.20;;;12.90;74.70;;;;;;10503025;28;20196;-87
2022/01/26 06:31:30;;;;;;;6.43;3.90;;;13.00;74.60;;;;;;10502733;28;20259;-87
2022/01/26 06:36:33;;;;;;;4.73;3.70;;;13.10;74.30;;;;;;10501211;28;20197;-87
2022/01/26 06:41:35;;;;;;;6.43;3.80;;;13.00;74.50;;;;;;10500980;28;20228;-87
2022/01/26 06:46:53;;;;;;;7.73;3.93;;;13.00;74.70;;;;;;10502270;28;20200;-87
2022/01/26 06:51:57;;;;;;;6.93;3.97;;;13.00;74.70;;;;;;10500937;28;20710;-87
2022/01/26 06:57:01;;;;;;;6.57;4.33;;;13.00;74.60;;;;;;10500584;28;20203;-87
2022/01/26 07:02:04;;;;;;;5.20;3.57;;;13.00;74.80;;;;;;10500667;28;20253;-87
2022/01/26 07:07:06;;;;;;;6.03;3.87;;;13.00;74.90;;;;;;10483540;28;20567;-87
2022/01/26 07:12:09;;;;;;;6.87;4.17;;;13.00;74.80;;;;;;10501317;28;20218;-87
2022/01/26 07:22:34;;;;;;;6.47;4.10;;;13.00;74.70;;;;;;10501343;28;20195;-87
2022/01/26 07:27:36;;;;;;;9.90;4.43;;;13.10;74.40;;;;;;10499344;28;20229;-86
2022/01/26 07:32:39;;;;;;;5.30;3.80;;;13.10;74.40;;;;;;10500531;28;20564;-87
2022/01/26 07:37:43;;;;;;;5.80;3.63;;;13.00;74.70;;;;;;10499131;28;20217;-87
2022/01/26 07:42:46;;;;;;;5.67;3.57;;;13.10;74.50;;;;;;10498822;28;20253;-87
2022/01/26 07:47:52;;;;;;;4.77;3.67;;;12.80;75.40;;;;;;10499838;28;20240;-87
2022/01/26 07:52:55;;;;;;;5.93;3.80;;;13.00;74.60;;;;;;10498533;28;20220;-87
2022/01/26 07:57:58;;;;;;;4.67;3.80;;;13.00;74.70;;;;;;10497720;28;20540;-87
2022/01/26 08:03:00;;;;;;;3.80;3.00;;;13.00;74.80;;;;;;10498026;28;20566;-87
2022/01/26 08:08:03;;;;;;;6.67;4.33;;;12.90;75.20;;;;;;10498791;28;20223;-87
2022/01/26 08:13:06;;;;;;;4.23;3.80;;;12.90;75.00;;;;;;10497283;28;20286;-87
2022/01/26 08:18:09;;;;;;;5.47;3.57;;;12.90;74.90;;;;;;10481426;28;20202;-87
2022/01/26 08:23:16;;;;;;;4.43;3.13;;;13.10;74.60;;;;;;10497391;28;20242;-87
2022/01/26 08:28:28;;;;;;;4.20;3.60;;;13.00;74.80;;;;;;10497918;28;20257;-87
2022/01/26 08:33:30;;;;;;;7.87;3.70;;;13.00;74.80;;;;;;10496971;28;20223;-87
2022/01/26 08:38:33;;;;;;;5.93;4.43;;;13.00;75.30;;;;;;10497647;28;20195;-87
2022/01/26 08:43:35;;;;;;;5.20;3.37;;;13.00;75.00;;;;;;10497981;28;20261;-87
2022/01/26 08:48:38;;;;;;;6.00;3.63;;;13.10;74.70;;;;;;10497841;28;20239;-87
2022/01/26 08:53:41;;;;;;;4.80;3.37;;;13.00;74.70;;;;;;10497927;28;20223;-87
2022/01/26 08:58:43;;;;;;;4.63;3.93;;;12.90;75.20;;;;;;10479432;28;20207;-87
2022/01/26 09:03:46;;;;;;;5.50;3.77;;;12.90;75.40;;;;;;10497369;28;20194;-87
2022/01/26 09:08:58;;;;;;;4.13;3.53;;;13.00;74.90;;;;;;10494990;28;20609;-87
2022/01/26 09:14:07;;;;;;;7.10;3.87;;;13.00;74.90;;;;;;10495961;28;20203;-87
2022/01/26 09:19:23;;;;;;;4.97;3.37;;;13.10;74.80;;;;;;10497020;28;20194;-87
2022/01/26 09:24:27;;;;;;;4.90;3.83;;;12.90;75.10;;;;;;10495503;28;20206;-87
2022/01/26 09:29:30;;;;;;;5.23;3.37;;;13.00;74.80;;;;;;10495369;28;20227;-87
2022/01/26 09:34:35;;;;;;;4.67;3.67;;;12.90;75.10;;;;;;10496357;28;20194;-87
2022/01/26 09:39:42;;;;;;;3.30;2.70;;;12.70;75.10;;;;;;10496769;28;20194;-87
2022/01/26 09:44:45;;;;;;;3.73;2.90;;;13.00;74.70;;;;;;10496534;28;20221;-87
2022/01/26 09:49:49;;;;;;;5.10;3.73;;;13.10;74.80;;;;;;10496388;28;20253;-87
2022/01/26 09:54:52;;;;;;;4.03;3.13;;;13.00;74.50;;;;;;10494980;28;20243;-87
2022/01/26 10:00:00;;;;;;;3.23;2.93;;;12.80;75.40;;;;;;10496174;28;20195;-87
2022/01/26 10:05:10;;;;;;;4.23;3.50;;;12.90;75.20;;;;;;10496043;28;20257;-87
2022/01/26 10:15:35;;;;;;;4.80;3.80;;;12.90;74.70;;;;;;10494322;28;20195;-87
2022/01/26 10:20:45;;;;;;;4.13;3.20;;;13.00;74.80;;;;;;10501777;28;20648;-87
2022/01/26 10:26:03;;;;;;;7.77;3.87;;;13.10;74.40;;;;;;10502104;28;20608;-87
2022/01/26 10:31:14;;;;;;;3.63;3.23;;;12.90;74.50;;;;;;10501275;28;20222;-86
2022/01/26 10:36:48;;;;;;;4.43;3.33;;;13.00;74.70;;;;;;10502479;28;20194;-87
2022/01/26 10:41:53;;;;;;;4.33;3.30;;;12.80;75.50;;;;;;10501123;28;20203;-86
2022/01/26 10:47:00;;;;;;;5.93;4.27;;;13.00;74.80;;;;;;10502096;28;20206;-87
2022/01/26 10:52:19;;;;;;;5.30;3.97;;;12.90;74.70;;;;;;10501169;28;20279;-87
2022/01/26 10:57:23;;;;;;;4.77;3.60;;;13.00;74.40;;;;;;10501932;28;20195;-87
2022/01/26 11:02:33;;;;;;;6.07;3.90;;;13.00;74.30;;;;;;10501787;28;20605;-87
2022/01/26 11:07:40;;;;;;;4.40;3.40;;;13.00;74.40;;;;;;10501407;28;20256;-87
2022/01/26 11:12:43;;;;;;;4.63;3.83;;;12.90;74.90;;;;;;10500479;28;20226;-87
2022/01/26 11:17:46;;;;;;;4.13;3.73;;;12.90;74.50;;;;;;10501217;28;20531;-87
2022/01/26 11:23:02;;;;;;;5.17;3.43;;;12.90;74.60;;;;;;10501090;28;20634;-87
2022/01/26 11:28:22;;;;;;;4.70;3.73;;;12.90;74.40;;;;;;10499309;28;20226;-87
2022/01/26 11:33:27;;;;;;;4.23;3.00;;;12.80;74.50;;;;;;10498759;28;20216;-87
2022/01/26 11:49:13;;;;;;;4.83;3.27;;;12.70;74.80;;;;;;10498587;28;20251;-87
2022/01/26 11:54:25;;;;;;;4.67;3.13;;;12.90;74.40;;;;;;10498579;28;20215;-86
2022/01/26 11:59:31;;;;;;;3.90;3.03;;;12.90;74.40;;;;;;10497602;28;20204;-87
2022/01/26 12:04:36;;;;;;;5.23;3.23;;;12.90;74.40;;;;;;10499003;28;20194;-87
2022/01/26 12:09:40;;;;;;;4.17;3.27;;;12.70;75.10;;;;;;10499068;28;20202;-87
2022/01/26 12:14:46;;;;;;;3.07;2.77;;;12.80;74.80;;;;;;10497723;28;20245;-87
2022/01/26 12:32:05;;;;;;;3.27;2.60;;;12.80;74.60;;;;;;10497524;28;20233;-87
2022/01/26 12:36:24;;;;;;;4.73;3.40;;;12.40;75.20;;;;;;10496425;28;20223;-87
2022/01/26 12:41:33;;;;;;;4.63;3.30;;;13.00;73.80;;;;;;10497879;28;20541;-87
2022/01/26 12:46:37;;;;;;;3.43;2.60;;;13.00;73.50;;;;;;10479804;28;20252;-87
2022/01/26 12:51:45;;;;;;;5.63;2.87;;;13.00;73.90;;;;;;10497652;28;20222;-87
2022/01/26 12:56:48;;;;;;;3.53;2.87;;;13.00;73.80;;;;;;10479354;28;20268;-87
2022/01/26 13:01:54;;;;;;;4.90;2.60;;;12.80;74.30;;;;;;10497263;28;20202;-87
2022/01/26 13:06:57;;;;;;;5.20;2.63;;;13.10;73.50;;;;;;10495826;28;20203;-87
2022/01/26 13:12:03;;;;;;;4.33;2.77;;;13.10;73.40;;;;;;10496852;28;20218;-86
2022/01/26 13:17:15;;;;;;;3.40;2.60;;;13.10;73.10;;;;;;10495653;28;20237;-87
2022/01/26 13:45:26;;;;;;;13.40;7.70;;;6.90;93.00;;;;;;9693084;23;10000391;-84
2022/01/26 14:00:56;;;;;;;5.43;2.70;;;14.00;92.40;;;;;;10096847;29;20238;-83
2022/01/26 14:05:59;;;;;;;4.80;2.70;;;14.70;87.80;;;;;;10072109;29;20239;-84
2022/01/26 14:11:01;;;;;;;3.80;2.20;;;15.00;85.90;;;;;;10060686;29;20252;-83
2022/01/26 14:16:05;;;;;;;5.17;2.10;;;15.50;83.90;;;;;;10059225;29;20229;-84
2022/01/26 14:26:14;;;;;;;5.33;2.40;;;15.70;82.60;;;;;;10093056;29;20292;-84
2022/01/26 14:36:38;;;;;;;5.97;3.20;;;8.70;99.90;;;;;;10065708;29;20239;-84
2022/01/26 14:53:15;;;;;;;3.67;2.60;;;15.50;84.20;;;;;;10081446;29;20319;-84
2022/01/26 15:40:21;;;;;;;3.70;2.33;;;15.30;82.40;;;;;;10036130;29;20350;-83
2022/01/26 15:51:02;;;;;;;4.30;2.50;;;15.30;82.40;;;;;;10034642;29;20823;-84
2022/01/26 18:50:58;;;;;;;130.53;118.23;;;12.70;89.20;;;;;;9850090;29;10000141;-91
2022/01/26 18:56:00;;;;;;;134.97;121.67;;;13.10;87.30;;;;;;10208886;29;20257;-91
2022/01/26 19:01:07;;;;;;;12.97;11.53;;;12.90;88.40;;;;;;10191771;29;20233;-91
2022/01/26 19:06:10;;;;;;;160.50;143.97;;;11.50;68.30;;;;;;10208973;29;20263;-90
2022/01/26 19:11:12;;;;;;;58.13;52.17;;;12.40;90.40;;;;;;10190707;29;20344;-90
2022/01/26 19:26:48;;;;;;;126.10;112.13;;;12.00;91.00;;;;;;10191422;29;20235;-90
2022/01/26 19:32:16;;;;;;;186.67;163.97;;;12.50;88.00;;;;;;10191188;29;20254;-91
2022/01/26 19:52:55;;;;;;;183.97;153.17;;;12.00;73.40;;;;;;10164719;29;20254;-91
2022/01/26 19:57:59;;;;;;;222.63;187.13;;;12.80;85.40;;;;;;10191415;29;20233;-91
2022/01/26 20:03:07;;;;;;;225.80;185.30;;;13.00;85.70;;;;;;10189812;29;20290;-91
2022/01/26 20:13:39;;;;;;;105.43;81.17;;;12.10;87.80;;;;;;10207358;29;20331;-91
2022/01/26 20:18:41;;;;;;;169.83;133.67;;;12.20;70.40;;;;;;10190606;29;20285;-90
2022/01/26 20:23:45;;;;;;;158.30;121.70;;;10.20;91.90;;;;;;10208056;29;20701;-91
2022/01/26 20:28:48;;;;;;;244.57;186.93;;;9.00;90.90;;;;;;10208992;29;20619;-89
2022/01/26 20:33:55;;;;;;;116.80;83.30;;;11.90;92.30;;;;;;10208735;29;20301;-91
2022/01/26 20:39:04;;;;;;;153.63;112.60;;;10.80;82.10;;;;;;10191092;29;20274;-91
2022/01/26 20:44:06;;;;;;;248.33;188.07;;;10.60;94.90;;;;;;10174543;29;20243;-92
2022/01/26 20:49:09;;;;;;;225.73;171.13;;;11.60;92.40;;;;;;10171249;29;20239;-92
2022/01/26 20:54:15;;;;;;;184.83;139.00;;;11.90;90.80;;;;;;10173791;29;20326;-91
2022/01/26 20:59:18;;;;;;;210.30;158.97;;;12.10;88.20;;;;;;10175478;29;20294;-92
2022/01/26 21:04:23;;;;;;;92.97;68.53;;;11.20;93.20;;;;;;10172810;29;20754;-91
2022/01/26 21:09:25;;;;;;;184.67;138.77;;;12.30;78.40;;;;;;10181443;29;20291;-91
2022/01/26 21:14:28;;;;;;;112.83;83.80;;;10.00;95.10;;;;;;10185146;29;20278;-91
2022/01/26 21:19:32;;;;;;;110.43;79.30;;;10.60;87.30;;;;;;10170313;29;20267;-92
2022/01/26 21:24:34;;;;;;;144.77;109.87;;;10.60;90.80;;;;;;10189945;29;20250;-91
2022/01/26 21:29:37;;;;;;;123.97;97.13;;;12.30;88.60;;;;;;10173769;29;20655;-91
2022/01/26 21:34:40;;;;;;;93.93;72.03;;;12.50;85.40;;;;;;10159404;29;20247;-91
2022/01/26 21:39:42;;;;;;;114.17;86.60;;;12.80;82.00;;;;;;10187461;29;20231;-91
2022/01/26 21:44:45;;;;;;;107.63;85.67;;;10.90;90.10;;;;;;10173043;29;20236;-92
2022/01/26 21:49:50;;;;;;;99.17;77.80;;;12.70;84.80;;;;;;10186746;29;20259;-90
2022/01/26 21:54:53;;;;;;;90.53;70.60;;;12.30;81.30;;;;;;10168036;29;20252;-91
2022/01/26 21:59:56;;;;;;;75.13;58.17;;;12.50;78.60;;;;;;10184049;29;20263;-90
2022/01/26 22:04:58;;;;;;;87.57;68.13;;;12.40;84.00;;;;;;10187394;29;20259;-91
2022/01/26 22:10:01;;;;;;;25.67;14.20;;;12.90;82.70;;;;;;10188865;29;20657;-91
2022/01/26 22:15:04;;;;;;;79.33;60.20;;;11.30;72.40;;;;;;10196609;29;20716;-90
2022/01/26 22:20:07;;;;;;;62.87;46.73;;;11.60;88.80;;;;;;10196263;29;20226;-91
2022/01/26 22:25:12;;;;;;;52.70;38.70;;;12.10;84.80;;;;;;10196809;29;20274;-91
2022/01/26 22:30:15;;;;;;;44.87;30.97;;;11.20;86.80;;;;;;10182288;29;20628;-91
2022/01/26 22:35:17;;;;;;;58.53;42.27;;;12.30;77.90;;;;;;10173954;29;20255;-91
2022/01/26 22:40:24;;;;;;;46.20;29.23;;;11.60;86.40;;;;;;10172003;29;20687;-91
2022/01/26 22:45:47;;;;;;;37.90;21.90;;;10.30;80.00;;;;;;10180114;29;20223;-92
2022/01/26 22:50:56;;;;;;;42.93;25.47;;;10.10;86.40;;;;;;10196971;29;20564;-91
2022/01/26 22:56:19;;;;;;;48.70;33.93;;;8.80;90.10;;;;;;10197208;29;20870;-91
2022/01/26 23:06:51;;;;;;;43.13;30.20;;;10.70;92.70;;;;;;10192728;29;20286;-90
2022/01/26 23:11:54;;;;;;;37.07;18.67;;;10.70;90.50;;;;;;10181526;29;20234;-91
2022/01/26 23:16:57;;;;;;;43.67;30.10;;;10.80;80.40;;;;;;10172586;29;20259;-91
2022/01/26 23:22:00;;;;;;;43.60;30.63;;;11.50;88.70;;;;;;10178068;29;20648;-90
2022/01/26 23:27:36;;;;;;;42.47;24.10;;;10.50;93.60;;;;;;10176152;29;20651;-90
2022/01/26 23:33:06;;;;;;;39.80;24.00;;;10.50;89.70;;;;;;10176506;29;20319;-90
